Main page
METAR-TAF:

METAR-TAF

Airports :

Childress Municipal Airport

Childress, Texas, United States

latitude: 34-25-39N, longitude: 100-17-00W, elevation: 1952 ft

Current weather observation

The report was made 1 hour and 4 minutes ago, at 01:53 UTC
Wind 7 mph from the South/Southeast
Temperature 39°F
Humidity 70%
Pressure 30.30 in. Hg
Visibility: 10 miles
Clear sky

METAR: KCDS 150153Z AUTO 15006KT 10SM CLR 04/M01 A3030 RMK AO2 SLP270 T00391011

Time: 20:57 (02:57 UTC)

Forecast

The report was made 3 hours and 18 minutes ago, at 23:39 UTC
Forecast valid from 15 at 00 UTC to 15 at 24 UTC
Wind 5 mph from variable directions
Visibility: 6 miles
Clear sky

TAF: KCDS 142339Z 1500/1524 VRB04KT P6SM SKC

Weather observations and forecasts of more than 4000 airports (METAR and TAF reports).

The available stations are represented by yellow and red dots on the map.

Hover mouse over dot to see the name of the station.

Then click to see weather observations and forecasts.

To change the map : click on the green buttons with a black cross to zoom in, on the green button with a dash to zoom out, or on the green arrows for adjacent maps.


METAR-TAF: